createdAt,value
2019-03-03T00:00:04.529Z,6.40
2019-03-03T00:02:51.779Z,6.40
2019-03-03T00:05:33.794Z,6.40
2019-03-03T00:08:15.621Z,6.40
2019-03-03T00:10:58.034Z,6.40
2019-03-03T00:13:40.301Z,6.40
2019-03-03T00:16:24.011Z,6.40
2019-03-03T00:19:05.876Z,6.40
2019-03-03T00:21:48.174Z,6.40
2019-03-03T00:24:31.053Z,6.40
2019-03-03T00:27:13.533Z,6.50
2019-03-03T00:29:56.396Z,6.50
2019-03-03T00:32:40.475Z,6.60
2019-03-03T00:35:23.489Z,6.60
2019-03-03T00:38:27.337Z,6.60
2019-03-03T00:41:29.430Z,6.70
2019-03-03T00:44:30.390Z,6.70
2019-03-03T00:47:31.433Z,6.70
2019-03-03T00:50:36.132Z,6.70
2019-03-03T00:53:42.170Z,6.70
2019-03-03T00:56:31.352Z,6.70
2019-03-03T00:59:32.593Z,6.80
2019-03-03T01:02:36.278Z,6.80
2019-03-03T01:05:38.480Z,6.80
2019-03-03T01:08:39.508Z,6.80
2019-03-03T01:11:43.346Z,6.80
2019-03-03T01:14:44.748Z,6.90
2019-03-03T01:17:29.190Z,6.90
2019-03-03T01:20:36.768Z,6.90
2019-03-03T01:23:37.526Z,6.90
2019-03-03T01:26:21.397Z,6.90
2019-03-03T01:29:06.292Z,6.90
2019-03-03T01:31:48.474Z,7.00
2019-03-03T01:34:31.356Z,6.90
2019-03-03T01:37:15.826Z,7.00
2019-03-03T01:39:58.868Z,7.00
2019-03-03T01:42:42.504Z,7.00
2019-03-03T01:45:27.032Z,7.00
2019-03-03T01:48:08.684Z,7.10
2019-03-03T01:50:51.449Z,7.10
2019-03-03T01:53:33.426Z,7.00
2019-03-03T01:56:15.936Z,7.10
2019-03-03T01:58:59.787Z,7.10
2019-03-03T02:01:42.590Z,7.10
2019-03-03T02:04:24.610Z,7.10
2019-03-03T02:07:07.470Z,7.20
2019-03-03T02:09:49.370Z,7.20
2019-03-03T02:12:31.729Z,7.30
2019-03-03T02:15:13.893Z,7.40
2019-03-03T02:17:56.609Z,7.50
2019-03-03T02:20:38.596Z,7.70
2019-03-03T02:23:20.742Z,7.80
2019-03-03T02:26:02.860Z,7.90
2019-03-03T02:28:44.922Z,8.00
2019-03-03T02:31:27.161Z,8.00
2019-03-03T02:34:09.800Z,8.00
2019-03-03T02:36:51.721Z,8.00
2019-03-03T02:39:33.985Z,8.00
2019-03-03T02:42:17.198Z,8.00
2019-03-03T02:44:59.256Z,8.00
2019-03-03T02:47:41.436Z,8.00
2019-03-03T02:50:24.289Z,7.90
2019-03-03T02:53:06.619Z,7.90
2019-03-03T02:55:49.451Z,7.90
2019-03-03T02:58:32.572Z,7.80
2019-03-03T03:04:27.807Z,7.80
2019-03-03T03:07:30.799Z,7.80
2019-03-03T03:10:33.890Z,7.70
2019-03-03T03:13:39.602Z,7.80
2019-03-03T03:16:33.413Z,7.70
2019-03-03T03:19:40.035Z,7.80
2019-03-03T03:22:23.005Z,7.70
2019-03-03T03:25:13.443Z,7.70
2019-03-03T03:28:14.281Z,7.70
2019-03-03T03:30:57.357Z,7.70
2019-03-03T03:33:48.786Z,7.80
2019-03-03T03:36:52.451Z,7.90
2019-03-03T03:42:57.732Z,7.90
2019-03-03T03:46:01.741Z,8.00
2019-03-03T03:49:06.063Z,8.10
2019-03-03T03:51:55.277Z,8.10
2019-03-03T03:54:44.573Z,8.10
2019-03-03T03:57:48.102Z,8.10
2019-03-03T04:00:52.449Z,8.20
2019-03-03T04:06:38.637Z,8.20
2019-03-03T04:09:44.755Z,8.30
2019-03-03T04:12:46.947Z,8.30
2019-03-03T04:15:29.842Z,8.30
2019-03-03T04:18:32.585Z,8.40
2019-03-03T04:21:15.448Z,8.40
2019-03-03T04:24:19.442Z,8.40
2019-03-03T04:27:19.041Z,8.50
2019-03-03T04:30:15.825Z,8.50
2019-03-03T04:33:09.063Z,8.50
2019-03-03T04:35:51.813Z,8.60
2019-03-03T04:38:55.233Z,8.60
2019-03-03T04:41:45.838Z,8.60
2019-03-03T04:44:46.864Z,8.60
2019-03-03T04:47:29.685Z,8.60
2019-03-03T04:53:12.957Z,8.60
2019-03-03T04:56:14.284Z,8.60
2019-03-03T04:59:15.262Z,8.60
2019-03-03T05:02:15.732Z,8.60
2019-03-03T05:05:17.824Z,8.70
2019-03-03T05:08:10.897Z,8.70
2019-03-03T05:10:55.814Z,8.70
2019-03-03T05:13:45.185Z,8.70
2019-03-03T05:16:33.637Z,8.70
2019-03-03T05:19:40.507Z,8.70
2019-03-03T05:22:23.014Z,8.70
2019-03-03T05:25:06.927Z,8.60
2019-03-03T05:27:49.037Z,8.60
2019-03-03T05:30:30.831Z,8.60
2019-03-03T05:33:12.944Z,8.60
2019-03-03T05:35:54.805Z,8.70
2019-03-03T05:38:36.721Z,8.70
2019-03-03T05:41:18.492Z,8.60
2019-03-03T05:44:00.403Z,8.70
2019-03-03T05:46:42.428Z,8.70
2019-03-03T05:49:24.293Z,8.70
2019-03-03T05:52:06.126Z,8.70
2019-03-03T05:54:49.139Z,8.80
2019-03-03T05:57:31.136Z,8.80
2019-03-03T06:00:13.969Z,8.80
2019-03-03T06:02:56.340Z,8.80
2019-03-03T06:05:38.249Z,8.80
2019-03-03T06:08:20.084Z,8.80
2019-03-03T06:10:50.551Z,8.80
2019-03-03T06:13:32.265Z,8.80
2019-03-03T06:16:14.245Z,8.80
2019-03-03T06:18:58.100Z,8.80
2019-03-03T06:21:40.018Z,8.80
2019-03-03T06:24:22.153Z,8.80
2019-03-03T06:27:04.213Z,8.90
2019-03-03T06:29:45.869Z,8.90
2019-03-03T06:32:27.672Z,8.90
2019-03-03T06:35:11.551Z,8.90
2019-03-03T06:37:55.724Z,8.90
2019-03-03T06:40:39.840Z,8.90
2019-03-03T06:43:22.925Z,8.90
2019-03-03T06:46:06.845Z,8.90
2019-03-03T06:48:49.974Z,9.00
2019-03-03T06:51:35.502Z,8.90
2019-03-03T06:54:17.665Z,9.00
2019-03-03T06:56:59.353Z,9.00
2019-03-03T06:59:43.216Z,9.00
2019-03-03T07:02:26.780Z,9.00
2019-03-03T07:05:08.605Z,9.00
2019-03-03T07:07:50.672Z,9.00
2019-03-03T07:10:32.546Z,9.10
2019-03-03T07:13:14.353Z,9.10
2019-03-03T07:15:58.180Z,9.10
2019-03-03T07:18:40.068Z,9.20
2019-03-03T07:21:22.094Z,9.30
2019-03-03T07:24:04.299Z,9.30
2019-03-03T07:26:46.385Z,9.40
2019-03-03T07:29:28.281Z,9.50
2019-03-03T07:32:10.254Z,9.50
2019-03-03T07:34:52.479Z,9.60
2019-03-03T07:37:36.350Z,9.70
2019-03-03T07:40:18.551Z,9.80
2019-03-03T07:43:00.805Z,9.90
2019-03-03T07:45:42.809Z,10.00
2019-03-03T07:48:24.808Z,10.10
2019-03-03T07:54:15.223Z,10.40
2019-03-03T07:56:57.603Z,10.40
2019-03-03T07:59:39.808Z,10.50
2019-03-03T08:02:21.843Z,10.60
2019-03-03T08:05:04.031Z,10.80
2019-03-03T08:07:45.952Z,10.90
2019-03-03T08:10:27.850Z,11.00
2019-03-03T08:13:09.768Z,11.10
2019-03-03T08:15:52.812Z,11.20
2019-03-03T08:18:34.647Z,11.30
2019-03-03T08:21:16.620Z,11.40
2019-03-03T08:23:58.569Z,11.50
2019-03-03T08:26:40.688Z,11.70
2019-03-03T08:29:22.616Z,11.90
2019-03-03T08:32:04.835Z,12.00
2019-03-03T08:34:46.728Z,12.50
2019-03-03T08:37:29.629Z,12.80
2019-03-03T08:40:11.562Z,13.00
2019-03-03T08:42:54.632Z,13.00
2019-03-03T08:48:40.909Z,13.60
2019-03-03T08:51:37.032Z,13.90
2019-03-03T08:54:37.614Z,14.40
2019-03-03T09:00:25.376Z,17.80
2019-03-03T09:03:25.876Z,22.20
2019-03-03T09:06:28.962Z,25.40
2019-03-03T09:09:31.880Z,28.90
2019-03-03T09:15:17.398Z,30.30
2019-03-03T09:18:10.254Z,26.40
2019-03-03T09:24:13.126Z,21.70
2019-03-03T09:27:15.193Z,19.90
2019-03-03T09:30:19.278Z,17.30
2019-03-03T09:33:20.154Z,17.30
2019-03-03T09:36:02.890Z,17.10
2019-03-03T09:39:00.543Z,17.40
2019-03-03T09:42:06.050Z,17.20
2019-03-03T09:45:08.185Z,16.60
2019-03-03T09:48:11.069Z,16.10
2019-03-03T09:51:15.094Z,15.60
2019-03-03T09:54:18.886Z,15.10
2019-03-03T09:57:22.787Z,14.70
2019-03-03T10:00:25.647Z,14.30
2019-03-03T10:03:28.319Z,14.00
2019-03-03T10:06:24.336Z,13.70
2019-03-03T10:09:31.383Z,13.70
2019-03-03T10:15:30.541Z,14.70
2019-03-03T10:18:20.846Z,19.00
2019-03-03T10:21:05.356Z,24.40
2019-03-03T10:30:25.431Z,33.50
2019-03-03T10:33:28.674Z,32.60
2019-03-03T10:36:38.179Z,31.50
2019-03-03T10:39:25.047Z,31.30
2019-03-03T10:42:28.607Z,32.00
2019-03-03T10:45:11.509Z,33.50
2019-03-03T10:48:05.392Z,34.80
2019-03-03T10:51:03.810Z,36.20
2019-03-03T10:54:05.124Z,37.20
2019-03-03T10:56:48.280Z,38.10
2019-03-03T10:59:55.099Z,38.10
2019-03-03T11:02:42.062Z,35.70
2019-03-03T11:05:44.809Z,35.00
2019-03-03T11:08:48.658Z,34.60
2019-03-03T11:14:52.956Z,33.00
2019-03-03T11:17:55.971Z,30.90
2019-03-03T11:20:59.576Z,29.80
2019-03-03T11:26:44.676Z,28.40
2019-03-03T11:29:35.483Z,29.80
2019-03-03T11:32:18.259Z,31.40
2019-03-03T11:35:18.833Z,30.00
2019-03-03T11:38:27.936Z,29.00
2019-03-03T11:41:33.691Z,28.40
2019-03-03T11:44:16.430Z,28.00
2019-03-03T11:53:29.864Z,29.80
2019-03-03T11:56:19.251Z,30.10
2019-03-03T11:59:01.876Z,29.70
2019-03-03T12:05:05.529Z,29.30
2019-03-03T12:13:42.260Z,29.80
2019-03-03T12:16:42.340Z,28.50
2019-03-03T12:19:46.275Z,28.00
2019-03-03T12:22:50.815Z,24.60
2019-03-03T12:25:39.422Z,24.50
2019-03-03T12:28:30.872Z,24.10
2019-03-03T12:31:13.265Z,23.60
2019-03-03T12:34:06.043Z,23.40
2019-03-03T12:37:08.791Z,23.20
2019-03-03T12:40:12.960Z,22.90
2019-03-03T12:43:16.723Z,23.00
2019-03-03T12:46:17.662Z,23.00
2019-03-03T12:49:18.396Z,22.80
2019-03-03T12:52:19.903Z,22.00
2019-03-03T12:55:23.590Z,22.00
2019-03-03T12:58:12.594Z,21.50
2019-03-03T13:01:15.362Z,21.20
2019-03-03T13:04:22.144Z,21.10
2019-03-03T13:07:22.514Z,21.00
2019-03-03T13:10:26.634Z,20.70
2019-03-03T13:13:33.521Z,18.50
2019-03-03T13:16:34.100Z,20.20
2019-03-03T13:19:16.872Z,19.90
2019-03-03T13:28:08.812Z,19.50
2019-03-03T13:31:04.605Z,19.60
2019-03-03T13:34:06.522Z,19.50
2019-03-03T13:36:49.325Z,19.10
2019-03-03T13:39:43.979Z,18.60
2019-03-03T13:42:26.850Z,18.40
2019-03-03T13:45:10.859Z,18.30
2019-03-03T13:47:53.009Z,18.30
2019-03-03T13:50:35.104Z,18.50
2019-03-03T13:53:17.813Z,18.60
2019-03-03T13:55:59.753Z,18.70
2019-03-03T13:58:42.044Z,18.60
2019-03-03T14:01:23.798Z,18.40
2019-03-03T14:04:06.227Z,18.40
2019-03-03T14:06:49.398Z,18.30
2019-03-03T14:09:33.496Z,18.30
2019-03-03T14:12:18.832Z,18.20
2019-03-03T14:15:01.144Z,18.20
2019-03-03T14:17:43.302Z,18.10
2019-03-03T14:20:25.034Z,17.90
2019-03-03T14:23:07.931Z,17.70
2019-03-03T14:25:51.730Z,17.50
2019-03-03T14:28:34.410Z,17.40
2019-03-03T14:31:16.420Z,17.30
2019-03-03T14:33:58.233Z,17.20
2019-03-03T14:36:41.061Z,17.10
2019-03-03T14:39:22.902Z,17.10
2019-03-03T14:42:04.707Z,17.00
2019-03-03T14:44:46.432Z,16.90
2019-03-03T15:25:45.253Z,16.90
2019-03-03T15:28:27.017Z,16.80
2019-03-03T15:31:10.643Z,16.60
2019-03-03T15:33:54.745Z,16.40
2019-03-03T15:36:38.888Z,16.20
2019-03-03T15:39:22.710Z,16.10
2019-03-03T15:42:04.696Z,15.90
2019-03-03T15:44:46.990Z,15.90
2019-03-03T15:47:30.771Z,15.90
2019-03-03T15:50:13.035Z,15.90
2019-03-03T15:52:54.619Z,15.90
2019-03-03T15:55:36.405Z,15.90
2019-03-03T15:58:21.987Z,15.80
2019-03-03T16:01:03.939Z,15.80
2019-03-03T16:03:47.834Z,15.70
2019-03-03T16:06:29.676Z,15.60
2019-03-03T16:09:16.445Z,15.60
2019-03-03T16:11:58.530Z,15.60
2019-03-03T16:14:40.797Z,15.50
2019-03-03T16:17:24.644Z,15.50
2019-03-03T16:20:08.568Z,15.50
2019-03-03T16:22:50.331Z,15.50
2019-03-03T16:25:32.394Z,15.40
2019-03-03T16:28:15.274Z,15.30
2019-03-03T16:30:57.205Z,15.30
2019-03-03T16:33:39.821Z,15.20
2019-03-03T16:36:23.973Z,15.10
2019-03-03T16:39:06.355Z,15.10
2019-03-03T16:41:48.484Z,15.00
2019-03-03T16:44:31.490Z,15.00
2019-03-03T16:47:13.358Z,15.00
2019-03-03T16:49:55.434Z,14.90
2019-03-03T16:52:36.941Z,14.80
2019-03-03T16:55:19.681Z,14.80
2019-03-03T16:58:01.852Z,14.70
2019-03-03T17:00:43.833Z,14.70
2019-03-03T17:03:25.741Z,14.70
2019-03-03T17:06:07.621Z,14.70
2019-03-03T17:08:50.515Z,14.60
2019-03-03T17:11:33.377Z,14.60
2019-03-03T17:14:15.446Z,14.60
2019-03-03T17:16:58.654Z,14.60
2019-03-03T17:19:42.600Z,14.60
2019-03-03T17:22:24.469Z,14.50
2019-03-03T17:25:06.509Z,14.50
2019-03-03T17:27:48.092Z,14.30
2019-03-03T17:30:29.934Z,14.30
2019-03-03T17:33:12.932Z,14.10
2019-03-03T17:35:57.028Z,14.00
2019-03-03T17:38:39.998Z,13.90
2019-03-03T17:41:21.869Z,13.90
2019-03-03T17:44:03.799Z,13.70
2019-03-03T17:46:45.497Z,13.70
2019-03-03T17:49:27.438Z,13.60
2019-03-03T17:54:51.909Z,13.50
2019-03-03T17:57:33.789Z,13.50
2019-03-03T18:00:18.351Z,13.40
2019-03-03T18:03:00.041Z,13.40
2019-03-03T18:05:44.265Z,13.40
2019-03-03T18:08:26.396Z,13.40
2019-03-03T18:11:08.302Z,13.30
2019-03-03T18:13:51.105Z,13.30
2019-03-03T18:16:35.412Z,13.30
2019-03-03T18:19:17.274Z,13.30
2019-03-03T18:22:01.085Z,13.20
2019-03-03T18:24:45.141Z,13.20
2019-03-03T18:27:27.245Z,13.20
2019-03-03T18:30:09.384Z,13.10
2019-03-03T18:32:51.284Z,13.10
2019-03-03T18:35:33.346Z,13.10
2019-03-03T18:38:15.437Z,13.10
2019-03-03T18:40:57.341Z,13.10
2019-03-03T18:43:39.001Z,13.00
2019-03-03T18:46:21.737Z,13.10
2019-03-03T18:49:03.789Z,13.10
2019-03-03T18:51:46.106Z,13.10
2019-03-03T18:54:27.764Z,13.00
2019-03-03T18:57:09.401Z,13.00
2019-03-03T18:59:51.342Z,13.00
2019-03-03T19:02:34.172Z,13.00
2019-03-03T19:05:17.832Z,12.90
2019-03-03T19:08:01.133Z,12.90
2019-03-03T19:10:43.155Z,12.90
2019-03-03T19:13:24.952Z,12.90
2019-03-03T19:16:06.930Z,12.90
2019-03-03T19:18:50.653Z,12.90
2019-03-03T19:21:32.854Z,12.90
2019-03-03T19:24:15.874Z,12.90
2019-03-03T19:26:58.036Z,12.70
2019-03-03T19:29:41.436Z,12.70
2019-03-03T19:32:23.342Z,12.70
2019-03-03T19:35:05.714Z,12.60
2019-03-03T19:37:49.563Z,12.60
2019-03-03T19:40:32.504Z,12.60
2019-03-03T19:43:14.437Z,12.50
2019-03-03T19:45:57.357Z,12.50
2019-03-03T19:48:39.276Z,12.40
2019-03-03T19:51:21.470Z,12.40
2019-03-03T19:54:03.221Z,12.30
2019-03-03T19:56:47.339Z,12.20
2019-03-03T19:59:29.222Z,12.20
2019-03-03T20:02:12.219Z,12.10
2019-03-03T20:04:56.103Z,12.10
2019-03-03T20:07:38.924Z,12.00
2019-03-03T20:10:20.914Z,12.00
2019-03-03T20:13:02.997Z,11.90
2019-03-03T20:15:45.132Z,11.90
2019-03-03T20:18:27.012Z,11.90
2019-03-03T20:21:08.729Z,11.80
2019-03-03T20:23:50.778Z,11.80
2019-03-03T20:26:33.839Z,11.70
2019-03-03T20:29:15.683Z,11.70
2019-03-03T20:31:58.226Z,11.60
2019-03-03T20:34:40.068Z,11.60
2019-03-03T20:37:22.223Z,11.50
2019-03-03T20:40:04.737Z,11.50
2019-03-03T20:42:47.421Z,11.50
2019-03-03T20:45:29.194Z,11.50
2019-03-03T20:48:12.084Z,11.50
2019-03-03T20:50:56.146Z,11.50
2019-03-03T20:53:40.523Z,11.40
2019-03-03T20:56:24.740Z,11.40
2019-03-03T20:59:06.840Z,11.40
2019-03-03T21:01:49.749Z,11.40
2019-03-03T21:04:33.536Z,11.40
2019-03-03T21:07:15.499Z,11.40
2019-03-03T21:09:57.790Z,11.40
2019-03-03T21:12:40.388Z,11.40
2019-03-03T21:15:22.082Z,11.30
2019-03-03T21:18:04.978Z,11.30
2019-03-03T21:20:49.023Z,11.30
2019-03-03T21:23:32.076Z,11.30
2019-03-03T21:26:16.012Z,11.30
2019-03-03T21:28:58.062Z,11.30
2019-03-03T21:31:41.869Z,11.20
2019-03-03T21:34:24.686Z,11.20
2019-03-03T21:37:08.394Z,11.10
2019-03-03T21:39:51.490Z,11.10
2019-03-03T21:42:35.556Z,11.10
2019-03-03T21:45:19.525Z,11.10
2019-03-03T21:48:03.393Z,11.00
2019-03-03T21:50:47.443Z,10.90
2019-03-03T21:53:29.878Z,10.90
2019-03-03T21:56:11.466Z,10.80
2019-03-03T21:58:53.430Z,10.80
2019-03-03T22:01:35.507Z,10.80
2019-03-03T22:04:17.420Z,10.70
2019-03-03T22:06:59.084Z,10.70
2019-03-03T22:09:42.935Z,10.70
2019-03-03T22:12:25.056Z,10.70
2019-03-03T22:15:08.139Z,10.70
2019-03-03T22:17:50.050Z,10.60
2019-03-03T22:20:32.070Z,10.60
2019-03-03T22:23:13.941Z,10.50
2019-03-03T22:25:56.156Z,10.40
2019-03-03T22:28:38.046Z,10.30
2019-03-03T22:31:20.048Z,10.30
2019-03-03T22:34:02.107Z,10.20
2019-03-03T22:36:45.032Z,10.20
2019-03-03T22:39:27.102Z,10.10
2019-03-03T22:42:11.597Z,10.10
2019-03-03T22:44:53.978Z,10.10
2019-03-03T22:47:37.922Z,10.10
2019-03-03T22:50:22.080Z,10.10
2019-03-03T22:53:04.125Z,10.10
2019-03-03T22:55:47.205Z,10.10
2019-03-03T22:58:29.055Z,10.10
2019-03-03T23:01:12.051Z,10.10
2019-03-03T23:03:55.917Z,10.10
2019-03-03T23:06:38.184Z,10.00
2019-03-03T23:09:20.008Z,10.00
2019-03-03T23:12:01.960Z,10.00
2019-03-03T23:14:43.845Z,9.90
2019-03-03T23:17:26.805Z,9.90
2019-03-03T23:20:09.098Z,9.90
2019-03-03T23:22:51.075Z,9.90
2019-03-03T23:25:33.049Z,9.90
2019-03-03T23:28:15.931Z,9.90
2019-03-03T23:30:57.958Z,9.90
2019-03-03T23:33:40.240Z,9.90
2019-03-03T23:36:22.145Z,9.90
2019-03-03T23:39:05.106Z,9.80
2019-03-03T23:41:49.999Z,9.80
2019-03-03T23:44:33.061Z,9.80
2019-03-03T23:47:17.097Z,9.80
2019-03-03T23:50:01.258Z,9.80
2019-03-03T23:52:45.480Z,9.80
2019-03-03T23:55:29.610Z,9.80
2019-03-03T23:58:13.270Z,9.80
